Time;durP1;ratioP1;P1;durP2;ratioP2;P2;SDS_P1;SDS_P2;PMS_P1;PMS_P2;Temp;Humidity;BMP_temperature;BMP_pressure;BME280_temperature;BME280_humidity;BME280_pressure;Samples;Min_cycle;Max_cycle;Signal;HPM_P1;HPM_P2
2023/12/07 00:01:41;;;;;;;;;0.00;0.00;;;;;-146.25;100.00;57879.81;5118947;27;45508;-72
2023/12/07 00:04:07;;;;;;;;;0.00;0.00;;;;;-146.25;100.00;57879.81;5119410;27;45453;-72
2023/12/07 00:06:32;;;;;;;;;0.00;0.00;;;;;-146.25;100.00;57879.81;5118957;27;45552;-72
2023/12/07 00:09:00;;;;;;;;;1.00;0.00;;;;;-146.25;100.00;57879.81;5118901;27;45514;-72
2023/12/07 00:11:25;;;;;;;;;0.00;0.00;;;;;-146.25;100.00;57879.81;5118755;27;45513;-72
2023/12/07 00:13:51;;;;;;;;;0.00;0.00;;;;;-146.25;100.00;57879.81;5117600;27;45456;-72
2023/12/07 00:16:16;;;;;;;;;0.00;0.00;;;;;-146.25;100.00;57879.81;5118989;27;45314;-72
2023/12/07 00:18:43;;;;;;;;;0.00;0.00;;;;;-146.25;100.00;57879.81;5119073;27;45412;-73
2023/12/07 00:21:09;;;;;;;;;1.00;0.00;;;;;-146.25;100.00;57879.81;5118850;27;45573;-72
2023/12/07 00:23:35;;;;;;;;;0.00;0.00;;;;;-146.25;100.00;57879.81;5118845;27;45418;-72
2023/12/07 00:26:00;;;;;;;;;0.00;0.00;;;;;-146.25;100.00;57879.81;5118675;27;45306;-72
2023/12/07 00:28:26;;;;;;;;;0.25;0.00;;;;;-146.25;100.00;57879.81;5118892;27;45317;-72
2023/12/07 00:30:52;;;;;;;;;0.75;0.00;;;;;-146.25;100.00;57879.81;5118627;27;45306;-72
2023/12/07 00:33:18;;;;;;;;;0.00;0.00;;;;;-146.25;100.00;57879.81;5118481;27;45344;-82
2023/12/07 00:35:43;;;;;;;;;0.00;0.00;;;;;-146.25;100.00;57879.81;5118758;27;45213;-72
2023/12/07 00:38:10;;;;;;;;;0.00;0.00;;;;;-146.25;100.00;57879.81;5119073;27;45233;-72
2023/12/07 00:40:38;;;;;;;;;0.00;0.00;;;;;-146.25;100.00;57879.81;5118248;27;45460;-72
2023/12/07 00:46:29;;;;;;;;;0.00;0.00;;;;;-146.25;100.00;57879.81;5116053;27;46444;-80
2023/12/07 00:48:54;;;;;;;;;0.00;0.00;;;;;-146.25;100.00;57879.81;5097521;27;45334;-75
2023/12/07 00:51:20;;;;;;;;;0.00;0.00;;;;;-146.25;100.00;57879.81;5096849;27;45619;-75
2023/12/07 00:53:45;;;;;;;;;0.00;0.00;;;;;-146.25;100.00;57879.81;5097202;27;45800;-73
2023/12/07 00:56:12;;;;;;;;;0.00;0.00;;;;;-146.25;100.00;57879.81;5097517;27;45446;-80
2023/12/07 00:58:38;;;;;;;;;1.00;0.00;;;;;-146.25;100.00;57879.81;5077931;27;45474;-81
2023/12/07 01:01:04;;;;;;;;;0.00;0.00;;;;;-146.25;100.00;57879.81;5097383;27;46103;-72
2023/12/07 01:03:29;;;;;;;;;0.00;0.00;;;;;-146.25;100.00;57879.81;5097215;27;45345;-73
2023/12/07 01:05:55;;;;;;;;;0.00;0.00;;;;;-146.25;100.00;57879.81;5097647;27;45434;-72
2023/12/07 01:08:21;;;;;;;;;0.00;0.00;;;;;-146.25;100.00;57879.81;5097330;27;45567;-74
2023/12/07 01:10:46;;;;;;;;;0.00;0.00;;;;;-146.25;100.00;57879.81;5097651;27;45611;-73
2023/12/07 01:13:12;;;;;;;;;0.00;0.00;;;;;-146.25;100.00;57879.81;5097429;27;45314;-73
2023/12/07 01:15:37;;;;;;;;;0.00;0.00;;;;;-146.25;100.00;57879.81;5097857;27;45476;-72
2023/12/07 01:18:03;;;;;;;;;0.00;0.00;;;;;-146.25;100.00;57879.81;5097925;27;45462;-73
2023/12/07 01:20:28;;;;;;;;;1.00;0.00;;;;;-146.25;100.00;57879.81;5078844;27;46963;-73
2023/12/07 01:22:54;;;;;;;;;0.00;0.00;;;;;-146.25;100.00;57879.81;5078775;27;45401;-72
2023/12/07 01:25:21;;;;;;;;;0.00;0.00;;;;;-146.25;100.00;57879.81;5100542;27;45268;-72
2023/12/07 01:27:48;;;;;;;;;0.00;0.00;;;;;-146.25;100.00;57879.81;5101413;27;45480;-73
2023/12/07 01:30:14;;;;;;;;;0.00;0.00;;;;;-146.25;100.00;57879.81;5100738;27;45390;-73
2023/12/07 01:32:39;;;;;;;;;0.00;0.00;;;;;-146.25;100.00;57879.81;5101242;27;45386;-73
2023/12/07 01:35:06;;;;;;;;;0.00;0.00;;;;;-146.25;100.00;57879.81;5082561;27;45280;-73
2023/12/07 01:37:31;;;;;;;;;0.00;0.00;;;;;-146.25;100.00;57879.81;5101089;27;45403;-72
2023/12/07 01:39:57;;;;;;;;;0.00;0.00;;;;;-146.25;100.00;57879.81;5100627;27;46181;-72
2023/12/07 01:42:22;;;;;;;;;0.00;0.00;;;;;-146.25;100.00;57879.81;5100385;27;45322;-73
2023/12/07 01:44:48;;;;;;;;;0.00;0.00;;;;;-146.25;100.00;57879.81;5100558;27;45398;-73
2023/12/07 01:47:15;;;;;;;;;0.00;0.00;;;;;-146.25;100.00;57879.81;5101148;27;45552;-73
2023/12/07 01:49:41;;;;;;;;;0.00;0.00;;;;;-146.25;100.00;57879.81;5101169;27;46058;-72
2023/12/07 01:52:08;;;;;;;;;0.00;0.00;;;;;-146.25;100.00;57879.81;5100624;27;45503;-72
2023/12/07 01:54:35;;;;;;;;;0.00;0.00;;;;;-146.25;100.00;57879.81;5100661;27;45295;-72
2023/12/07 01:57:01;;;;;;;;;0.00;0.00;;;;;-146.25;100.00;57879.81;5100878;27;45493;-73
2023/12/07 01:59:27;;;;;;;;;0.00;0.00;;;;;-146.25;100.00;57879.81;5100270;27;45546;-73
2023/12/07 02:01:53;;;;;;;;;0.00;0.00;;;;;-146.25;100.00;57879.81;5100421;27;45594;-72
2023/12/07 02:04:18;;;;;;;;;0.00;0.00;;;;;-146.25;100.00;57879.81;5100644;27;45465;-73
2023/12/07 02:06:44;;;;;;;;;0.00;0.00;;;;;-146.25;100.00;57879.81;5101125;27;45455;-73
2023/12/07 02:09:10;;;;;;;;;0.00;0.00;;;;;-146.25;100.00;57879.81;5100738;27;46052;-73
2023/12/07 02:11:36;;;;;;;;;0.00;0.00;;;;;-146.25;100.00;57879.81;5100272;27;45311;-73
2023/12/07 02:14:01;;;;;;;;;0.00;0.00;;;;;-146.25;100.00;57879.81;5100397;27;45365;-73
2023/12/07 02:16:43;;;;;;;;;0.00;0.00;;;;;-146.25;100.00;57879.81;5100541;27;45494;-72
2023/12/07 02:19:31;;;;;;;;;1.00;0.00;;;;;-146.25;100.00;57879.81;5099940;27;46429;-72
2023/12/07 02:22:02;;;;;;;;;1.00;0.00;;;;;-146.25;100.00;57879.81;5100121;27;45247;-72
2023/12/07 02:24:33;;;;;;;;;2.00;0.00;;;;;-146.25;100.00;57879.81;5100238;27;45424;-73
2023/12/07 02:26:59;;;;;;;;;0.00;0.00;;;;;-146.25;100.00;57879.81;5100316;27;45410;-73
2023/12/07 02:29:25;;;;;;;;;0.00;0.00;;;;;-146.25;100.00;57879.81;5100015;27;45953;-73
2023/12/07 02:31:50;;;;;;;;;0.00;0.00;;;;;-146.25;100.00;57879.81;5100142;27;45263;-72
2023/12/07 02:34:16;;;;;;;;;0.00;0.00;;;;;-146.25;100.00;57879.81;5100378;27;45496;-73
2023/12/07 02:36:44;;;;;;;;;0.00;0.00;;;;;-146.25;100.00;57879.81;5099863;27;45484;-72
2023/12/07 02:39:12;;;;;;;;;0.00;0.00;;;;;-146.25;100.00;57879.81;5099686;27;46467;-73
2023/12/07 02:41:40;;;;;;;;;0.00;0.00;;;;;-146.25;100.00;57879.81;5099718;27;45544;-72
2023/12/07 02:44:07;;;;;;;;;0.00;0.00;;;;;-146.25;100.00;57879.81;5099663;27;45464;-73
2023/12/07 02:46:33;;;;;;;;;0.00;0.00;;;;;-146.25;100.00;57879.81;5100054;27;45497;-73
2023/12/07 02:48:59;;;;;;;;;0.25;0.00;;;;;-146.25;100.00;57879.81;5099609;27;45385;-73
2023/12/07 02:51:24;;;;;;;;;0.00;0.00;;;;;-146.25;100.00;57879.81;5099518;27;45485;-72
2023/12/07 02:53:50;;;;;;;;;0.00;0.00;;;;;-146.25;100.00;57879.81;5099972;27;45525;-73
2023/12/07 02:56:16;;;;;;;;;0.00;0.00;;;;;-146.25;100.00;57879.81;5100338;27;45434;-73
2023/12/07 02:58:41;;;;;;;;;0.00;0.00;;;;;-146.25;100.00;57879.81;5099639;27;45403;-73
2023/12/07 03:01:08;;;;;;;;;0.00;0.00;;;;;-146.25;100.00;57879.81;5099591;27;45381;-72
2023/12/07 03:03:33;;;;;;;;;0.00;0.00;;;;;-146.25;100.00;57879.81;5081276;27;45253;-73
2023/12/07 03:05:59;;;;;;;;;0.00;0.00;;;;;-146.25;100.00;57879.81;5099688;27;45242;-72
2023/12/07 03:08:24;;;;;;;;;0.00;0.00;;;;;-146.25;100.00;57879.81;5099338;27;46096;-72
2023/12/07 03:10:50;;;;;;;;;0.00;0.00;;;;;-146.25;100.00;57879.81;5099483;27;45272;-72
2023/12/07 03:13:15;;;;;;;;;0.00;0.00;;;;;-146.25;100.00;57879.81;5099870;27;45314;-73
2023/12/07 03:15:41;;;;;;;;;0.00;0.00;;;;;-146.25;100.00;57879.81;5099677;27;45379;-72
2023/12/07 03:18:07;;;;;;;;;0.00;0.00;;;;;-146.25;100.00;57879.81;5099269;27;45412;-72
2023/12/07 03:20:34;;;;;;;;;0.00;0.00;;;;;-146.25;100.00;57879.81;5099216;27;45490;-73
2023/12/07 03:23:00;;;;;;;;;0.00;0.00;;;;;-146.25;100.00;57879.81;5099387;27;45497;-72
2023/12/07 03:25:25;;;;;;;;;0.00;0.00;;;;;-146.25;100.00;57879.81;5099342;27;45530;-72
2023/12/07 03:27:51;;;;;;;;;0.00;0.00;;;;;-146.25;100.00;57879.81;5099117;27;46095;-73
2023/12/07 03:30:17;;;;;;;;;0.00;0.00;;;;;-146.25;100.00;57879.81;5099466;27;45311;-72
2023/12/07 03:32:43;;;;;;;;;0.00;0.00;;;;;-146.25;100.00;57879.81;5099312;27;45338;-73
2023/12/07 03:35:08;;;;;;;;;0.25;0.00;;;;;-146.25;100.00;57879.81;5099055;27;45225;-72
2023/12/07 03:37:34;;;;;;;;;0.00;0.00;;;;;-146.25;100.00;57879.81;5099096;27;45483;-73
2023/12/07 03:39:59;;;;;;;;;0.00;0.00;;;;;-146.25;100.00;57879.81;5099021;27;45225;-73
2023/12/07 03:42:25;;;;;;;;;0.00;0.00;;;;;-146.25;100.00;57879.81;5099196;27;45278;-73
2023/12/07 03:44:50;;;;;;;;;0.00;0.00;;;;;-146.25;100.00;57879.81;5099191;27;45584;-73
2023/12/07 03:47:16;;;;;;;;;0.00;0.00;;;;;-146.25;100.00;57879.81;5098077;27;46222;-73
2023/12/07 03:49:44;;;;;;;;;0.00;0.00;;;;;-146.25;100.00;57879.81;5098684;27;45324;-72
2023/12/07 03:52:10;;;;;;;;;1.00;0.00;;;;;-146.25;100.00;57879.81;5098951;27;45416;-73
2023/12/07 03:54:35;;;;;;;;;0.00;0.00;;;;;-146.25;100.00;57879.81;5098992;27;45377;-73
2023/12/07 03:57:01;;;;;;;;;0.00;0.00;;;;;-146.25;100.00;57879.81;5098615;27;45534;-73
2023/12/07 03:59:26;;;;;;;;;0.00;0.00;;;;;-146.25;100.00;57879.81;5098483;27;45492;-73
2023/12/07 04:01:52;;;;;;;;;0.00;0.00;;;;;-146.25;100.00;57879.81;5098800;27;45428;-73
2023/12/07 04:04:18;;;;;;;;;0.00;0.00;;;;;-146.25;100.00;57879.81;5099159;27;45422;-72
2023/12/07 04:06:43;;;;;;;;;0.00;0.00;;;;;-146.25;100.00;57879.81;5098394;27;45273;-73
2023/12/07 04:09:09;;;;;;;;;0.00;0.00;;;;;-146.25;100.00;57879.81;5098500;27;45303;-73
2023/12/07 04:11:34;;;;;;;;;0.00;0.00;;;;;-146.25;100.00;57879.81;5098526;27;45437;-73
2023/12/07 04:14:00;;;;;;;;;0.00;0.00;;;;;-146.25;100.00;57879.81;5098493;27;45291;-73
2023/12/07 04:16:26;;;;;;;;;0.00;0.00;;;;;-146.25;100.00;57879.81;5098280;27;45516;-72
2023/12/07 04:18:52;;;;;;;;;0.00;0.00;;;;;-146.25;100.00;57879.81;5098574;27;45335;-73
2023/12/07 04:21:17;;;;;;;;;0.00;0.00;;;;;-146.25;100.00;57879.81;5098692;27;45637;-72
2023/12/07 04:23:43;;;;;;;;;0.00;0.00;;;;;-146.25;100.00;57879.81;5098565;27;45359;-73
2023/12/07 04:26:08;;;;;;;;;0.00;0.00;;;;;-146.25;100.00;57879.81;5098208;27;45489;-73
2023/12/07 04:28:34;;;;;;;;;0.00;0.00;;;;;-146.25;100.00;57879.81;5098291;27;45453;-72
2023/12/07 04:31:00;;;;;;;;;0.00;0.00;;;;;-146.25;100.00;57879.81;5098242;27;45428;-73
2023/12/07 04:33:25;;;;;;;;;0.00;0.00;;;;;-146.25;100.00;57879.81;5098326;27;45430;-73
2023/12/07 04:35:51;;;;;;;;;0.00;0.00;;;;;-146.25;100.00;57879.81;5098311;27;45995;-73
2023/12/07 04:38:16;;;;;;;;;0.00;0.00;;;;;-146.25;100.00;57879.81;5097933;27;45435;-73
2023/12/07 04:40:42;;;;;;;;;0.00;0.00;;;;;-146.25;100.00;57879.81;5098104;27;45496;-81
2023/12/07 04:43:07;;;;;;;;;0.00;0.00;;;;;-146.25;100.00;57879.81;5098359;27;45369;-72
2023/12/07 04:45:33;;;;;;;;;0.00;0.00;;;;;-146.25;100.00;57879.81;5098073;27;45492;-72
2023/12/07 04:48:00;;;;;;;;;0.00;0.00;;;;;-146.25;100.00;57879.81;5097982;27;45468;-72
2023/12/07 04:50:25;;;;;;;;;0.00;0.00;;;;;-146.25;100.00;57879.81;5098093;27;45157;-73
2023/12/07 04:52:51;;;;;;;;;0.00;0.00;;;;;-146.25;100.00;57879.81;5098287;27;45264;-72
2023/12/07 04:55:17;;;;;;;;;0.00;0.00;;;;;-146.25;100.00;57879.81;5079270;27;45347;-73
2023/12/07 04:57:42;;;;;;;;;0.00;0.00;;;;;-146.25;100.00;57879.81;5097800;27;45496;-73
2023/12/07 05:00:11;;;;;;;;;0.00;0.00;;;;;-146.25;100.00;57879.81;5082223;27;45348;-72
2023/12/07 05:02:37;;;;;;;;;0.00;0.00;;;;;-146.25;100.00;57879.81;5083279;27;45510;-73
2023/12/07 05:05:03;;;;;;;;;0.25;0.00;;;;;-146.25;100.00;57879.81;5101199;27;45540;-73
2023/12/07 05:07:28;;;;;;;;;0.00;0.00;;;;;-146.25;100.00;57879.81;5082845;27;45365;-73
2023/12/07 05:09:54;;;;;;;;;0.00;0.00;;;;;-146.25;100.00;57879.81;5101867;27;45429;-74
2023/12/07 05:12:20;;;;;;;;;0.00;0.00;;;;;-146.25;100.00;57879.81;5083351;27;45343;-73
2023/12/07 05:14:45;;;;;;;;;0.00;0.00;;;;;-146.25;100.00;57879.81;5101329;27;45422;-73
2023/12/07 05:17:11;;;;;;;;;0.00;0.00;;;;;-146.25;100.00;57879.81;5101163;27;45397;-72
2023/12/07 05:19:36;;;;;;;;;0.00;0.00;;;;;-146.25;100.00;57879.81;5082998;27;45347;-73
2023/12/07 05:22:02;;;;;;;;;0.00;0.00;;;;;-146.25;100.00;57879.81;5101547;27;45311;-72
2023/12/07 05:24:30;;;;;;;;;0.50;0.00;;;;;-146.25;100.00;57879.81;5101045;27;46018;-73
2023/12/07 05:26:55;;;;;;;;;0.00;0.00;;;;;-146.25;100.00;57879.81;5101360;27;45295;-73
2023/12/07 05:29:21;;;;;;;;;0.00;0.00;;;;;-146.25;100.00;57879.81;5082948;27;45933;-73
2023/12/07 05:31:50;;;;;;;;;0.00;0.00;;;;;-146.25;100.00;57879.81;5101212;27;45599;-73
2023/12/07 05:34:16;;;;;;;;;0.00;0.00;;;;;-146.25;100.00;57879.81;5100848;27;45510;-72
2023/12/07 05:36:41;;;;;;;;;0.00;0.00;;;;;-146.25;100.00;57879.81;5082627;27;45328;-73
2023/12/07 05:39:07;;;;;;;;;0.00;0.00;;;;;-146.25;100.00;57879.81;5100993;27;45282;-72
2023/12/07 05:41:33;;;;;;;;;0.00;0.00;;;;;-146.25;100.00;57879.81;5101200;27;45539;-72
2023/12/07 05:43:58;;;;;;;;;0.00;0.00;;;;;-146.25;100.00;57879.81;5100511;27;45556;-72
2023/12/07 05:46:24;;;;;;;;;1.00;0.00;;;;;-146.25;100.00;57879.81;5100415;27;45289;-73
2023/12/07 05:48:50;;;;;;;;;1.33;0.00;;;;;-146.25;100.00;57879.81;5100869;27;45276;-73
2023/12/07 05:51:20;;;;;;;;;0.00;0.00;;;;;-146.25;100.00;57879.81;5100795;27;45448;-73
2023/12/07 05:53:46;;;;;;;;;1.00;0.00;;;;;-146.25;100.00;57879.81;5100323;27;45989;-72
2023/12/07 05:56:11;;;;;;;;;0.00;0.00;;;;;-146.25;100.00;57879.81;5100500;27;45499;-73
2023/12/07 05:58:37;;;;;;;;;0.50;0.00;;;;;-146.25;100.00;57879.81;5082275;27;45419;-74
2023/12/07 06:01:03;;;;;;;;;0.00;0.00;;;;;-146.25;100.00;57879.81;5100523;27;45212;-73
2023/12/07 06:03:29;;;;;;;;;0.00;0.00;;;;;-146.25;100.00;57879.81;5082025;27;45630;-72
2023/12/07 06:05:55;;;;;;;;;0.00;0.00;;;;;-146.25;100.00;57879.81;5082262;27;45426;-72
2023/12/07 06:08:22;;;;;;;;;0.25;0.00;;;;;-146.25;100.00;57879.81;5100641;27;45608;-72
2023/12/07 06:10:47;;;;;;;;;0.25;0.00;;;;;-146.25;100.00;57879.81;5099481;27;45465;-73
2023/12/07 06:13:13;;;;;;;;;1.00;0.00;;;;;-146.25;100.00;57879.81;5100277;27;45434;-81
2023/12/07 06:15:39;;;;;;;;;0.00;0.00;;;;;-146.25;100.00;57879.81;5100216;27;45927;-81
2023/12/07 06:18:05;;;;;;;;;0.00;0.00;;;;;-146.25;100.00;57879.81;5100692;27;45160;-73
2023/12/07 06:20:31;;;;;;;;;0.00;0.00;;;;;-146.25;100.00;57879.81;5100640;27;45254;-73
2023/12/07 06:22:57;;;;;;;;;0.00;0.00;;;;;-146.25;100.00;57879.81;5100181;27;45268;-73
2023/12/07 06:25:23;;;;;;;;;1.00;1.00;;;;;-146.25;100.00;57879.81;5081851;27;45288;-73
2023/12/07 06:27:49;;;;;;;;;1.00;0.25;;;;;-146.25;100.00;57879.81;5100122;27;45367;-72
2023/12/07 06:30:14;;;;;;;;;5.50;5.00;;;;;-146.25;100.00;57879.81;5100304;27;45386;-73
2023/12/07 06:32:40;;;;;;;;;6.75;6.00;;;;;-146.25;100.00;57879.81;5100085;27;46098;-79
2023/12/07 06:35:06;;;;;;;;;1.00;1.00;;;;;-146.25;100.00;57879.81;5099775;27;45288;-73
2023/12/07 06:37:31;;;;;;;;;1.00;0.00;;;;;-146.25;100.00;57879.81;5081629;27;45489;-72
2023/12/07 06:39:58;;;;;;;;;1.50;1.50;;;;;-146.25;100.00;57879.81;5100507;27;45357;-73
2023/12/07 06:42:24;;;;;;;;;0.00;0.00;;;;;-146.25;100.00;57879.81;5099967;27;46337;-73
2023/12/07 06:44:50;;;;;;;;;0.00;0.00;;;;;-146.25;100.00;57879.81;5099615;27;45273;-80
2023/12/07 06:47:16;;;;;;;;;0.00;0.00;;;;;-146.25;100.00;57879.81;5099927;27;45485;-73
2023/12/07 06:49:41;;;;;;;;;4.50;4.50;;;;;-146.25;100.00;57879.81;5100071;27;45390;-73
2023/12/07 06:52:07;;;;;;;;;22.25;18.00;;;;;-146.25;100.00;57879.81;5099369;27;45361;-76
2023/12/07 06:54:34;;;;;;;;;8.25;8.25;;;;;-146.25;100.00;57879.81;5106146;27;45626;-72
2023/12/07 06:57:00;;;;;;;;;3.00;2.75;;;;;-146.25;100.00;57879.81;5101919;27;45330;-73
2023/12/07 06:59:25;;;;;;;;;1.75;1.50;;;;;-146.25;100.00;57879.81;5101689;27;45539;-72
2023/12/07 07:01:51;;;;;;;;;3.25;2.50;;;;;-146.25;100.00;57879.81;5101195;27;46988;-72
2023/12/07 07:04:17;;;;;;;;;3.00;2.00;;;;;-146.25;100.00;57879.81;5119691;27;45345;-72
2023/12/07 07:06:43;;;;;;;;;3.75;3.00;;;;;-146.25;100.00;57879.81;5119815;27;46163;-72
2023/12/07 07:09:08;;;;;;;;;6.75;5.00;;;;;-146.25;100.00;57879.81;5118832;27;45802;-73
2023/12/07 07:11:34;;;;;;;;;3.25;3.00;;;;;-146.25;100.00;57879.81;5119738;27;46279;-72
2023/12/07 07:14:00;;;;;;;;;2.25;2.00;;;;;-146.25;100.00;57879.81;5120000;27;45409;-72
2023/12/07 07:16:26;;;;;;;;;3.25;3.00;;;;;-146.25;100.00;57879.81;5119898;27;45412;-72
2023/12/07 07:18:52;;;;;;;;;1.00;1.00;;;;;-146.25;100.00;57879.81;5119943;27;45220;-72
2023/12/07 07:21:19;;;;;;;;;1.00;1.00;;;;;-146.25;100.00;57879.81;5119440;27;45939;-72
2023/12/07 07:23:44;;;;;;;;;1.00;0.50;;;;;-146.25;100.00;57879.81;5118145;27;45518;-72
2023/12/07 07:26:10;;;;;;;;;1.00;1.00;;;;;-146.25;100.00;57879.81;5119739;27;45523;-79
2023/12/07 07:28:36;;;;;;;;;0.25;0.25;;;;;-146.25;100.00;57879.81;5119863;27;45328;-72
2023/12/07 07:31:02;;;;;;;;;1.00;0.67;;;;;-146.25;100.00;57879.81;5119659;27;46112;-71
2023/12/07 07:33:28;;;;;;;;;12.00;10.00;;;;;-146.25;100.00;57879.81;5100938;27;45547;-72
2023/12/07 07:35:53;;;;;;;;;4.50;4.00;;;;;-146.25;100.00;57879.81;5119166;27;45486;-72
2023/12/07 07:38:19;;;;;;;;;11.00;9.75;;;;;-146.25;100.00;57879.81;5119544;27;45431;-72
2023/12/07 07:40:47;;;;;;;;;3.00;3.00;;;;;-146.25;100.00;57879.81;5119195;27;45483;-72
2023/12/07 07:43:13;;;;;;;;;4.00;3.50;;;;;-146.25;100.00;57879.81;5100662;27;45582;-73
2023/12/07 07:45:38;;;;;;;;;1.00;1.00;;;;;-146.25;100.00;57879.81;5117919;27;45831;-72
2023/12/07 07:48:04;;;;;;;;;2.00;1.00;;;;;-146.25;100.00;57879.81;5119204;27;45575;-78
2023/12/07 07:50:30;;;;;;;;;2.50;2.50;;;;;-146.25;100.00;57879.81;5119476;27;45422;-79
2023/12/07 07:52:56;;;;;;;;;1.00;1.00;;;;;-146.25;100.00;57879.81;5100403;27;45560;-72
2023/12/07 07:55:22;;;;;;;;;1.00;1.00;;;;;-146.25;100.00;57879.81;5117942;27;45539;-73
2023/12/07 07:57:47;;;;;;;;;1.00;1.00;;;;;-146.25;100.00;57879.81;5119790;27;45451;-74
2023/12/07 08:00:13;;;;;;;;;0.00;0.00;;;;;-146.25;100.00;57879.81;5119050;27;45349;-81
2023/12/07 08:02:39;;;;;;;;;0.00;0.00;;;;;-146.25;100.00;57879.81;5119206;27;45487;-79
2023/12/07 08:05:05;;;;;;;;;1.00;1.00;;;;;-146.25;100.00;57879.81;5118995;27;45158;-72
2023/12/07 08:07:31;;;;;;;;;0.25;0.25;;;;;-146.25;100.00;57879.81;5101056;27;45620;-72
2023/12/07 08:09:57;;;;;;;;;0.00;0.00;;;;;-146.25;100.00;57879.81;5118561;27;45346;-73
2023/12/07 08:12:23;;;;;;;;;0.00;0.00;;;;;-146.25;100.00;57879.81;5118948;27;45391;-73
2023/12/07 08:14:49;;;;;;;;;1.00;1.00;;;;;-146.25;100.00;57879.81;5118853;27;45511;-73
2023/12/07 08:17:14;;;;;;;;;0.00;0.00;;;;;-146.25;100.00;57879.81;5119193;27;45357;-72
2023/12/07 08:19:42;;;;;;;;;0.33;0.33;;;;;-146.25;100.00;57879.81;5118804;27;46030;-72
2023/12/07 08:22:08;;;;;;;;;1.00;1.00;;;;;-146.25;100.00;57879.81;5118707;27;45597;-72
2023/12/07 08:24:34;;;;;;;;;0.33;0.00;;;;;-146.25;100.00;57879.81;5118731;27;45510;-71
2023/12/07 08:26:59;;;;;;;;;0.67;0.00;;;;;-146.25;100.00;57879.81;5118914;27;45306;-73
2023/12/07 08:29:25;;;;;;;;;0.33;0.00;;;;;-146.25;100.00;57879.81;5118380;27;46058;-71
2023/12/07 08:31:51;;;;;;;;;0.00;0.00;;;;;-146.25;100.00;57879.81;5118569;27;45320;-72
2023/12/07 08:34:16;;;;;;;;;3.00;3.00;;;;;-146.25;100.00;57879.81;5117484;27;45373;-72
2023/12/07 08:36:42;;;;;;;;;1.00;1.00;;;;;-146.25;100.00;57879.81;5118540;27;45977;-72
2023/12/07 08:39:09;;;;;;;;;2.00;1.00;;;;;-146.25;100.00;57879.81;5118345;27;45502;-72
2023/12/07 08:41:38;;;;;;;;;0.00;0.00;;;;;-146.25;100.00;57879.81;5118499;27;45579;-72
2023/12/07 08:44:04;;;;;;;;;0.00;0.00;;;;;-146.25;100.00;57879.81;5118640;27;45466;-72
2023/12/07 08:46:30;;;;;;;;;0.00;0.00;;;;;-146.25;100.00;57879.81;5117922;27;45494;-71
2023/12/07 08:48:56;;;;;;;;;1.00;1.00;;;;;-146.25;100.00;57879.81;5117962;27;46025;-72
2023/12/07 08:51:22;;;;;;;;;2.00;2.00;;;;;-146.25;100.00;57879.81;5117691;27;45365;-72
2023/12/07 08:53:47;;;;;;;;;1.00;1.00;;;;;-146.25;100.00;57879.81;5117879;27;45508;-72
2023/12/07 08:56:13;;;;;;;;;2.00;1.00;;;;;-146.25;100.00;57879.81;5115653;27;45400;-71
2023/12/07 08:58:39;;;;;;;;;4.00;4.00;;;;;-146.25;100.00;57879.81;5117911;27;45369;-72
2023/12/07 09:01:07;;;;;;;;;3.75;3.75;;;;;-146.25;100.00;57879.81;5118386;27;45193;-72
2023/12/07 09:03:33;;;;;;;;;1.67;1.00;;;;;-146.25;100.00;57879.81;5097316;27;45429;-72
2023/12/07 09:06:00;;;;;;;;;1.00;0.33;;;;;-146.25;100.00;57879.81;5097350;27;45472;-73
2023/12/07 09:08:25;;;;;;;;;0.00;0.00;;;;;-146.25;100.00;57879.81;5097351;27;45425;-72
2023/12/07 09:10:51;;;;;;;;;0.00;0.00;;;;;-146.25;100.00;57879.81;5097318;27;45492;-74
2023/12/07 09:13:17;;;;;;;;;0.67;0.67;;;;;-146.25;100.00;57879.81;5097591;27;45289;-72
2023/12/07 09:15:43;;;;;;;;;0.00;0.00;;;;;-146.25;100.00;57879.81;5097637;27;45496;-71
2023/12/07 09:18:10;;;;;;;;;20.50;20.50;;;;;-146.25;100.00;57879.81;5097114;27;45374;-75
2023/12/07 09:20:37;;;;;;;;;1.00;1.00;;;;;-146.25;100.00;57879.81;5097379;27;45417;-73
2023/12/07 09:23:04;;;;;;;;;0.00;0.00;;;;;-146.25;100.00;57879.81;5096983;27;45524;-81
2023/12/07 09:25:30;;;;;;;;;1.33;1.00;;;;;-146.25;100.00;57879.81;5097002;27;45374;-73
2023/12/07 09:27:56;;;;;;;;;2.33;1.00;;;;;-146.25;100.00;57879.81;5096565;27;46386;-77
2023/12/07 09:30:22;;;;;;;;;10.00;8.00;;;;;-146.25;100.00;57879.81;5096823;27;45412;-73
2023/12/07 09:32:48;;;;;;;;;9.25;8.00;;;;;-146.25;100.00;57879.81;5097390;27;45421;-74
2023/12/07 09:35:19;;;;;;;;;4.00;3.67;;;;;-146.25;100.00;57879.81;5097066;27;45492;-76
2023/12/07 09:37:45;;;;;;;;;6.00;5.00;;;;;-146.25;100.00;57879.81;5097103;27;45414;-74
2023/12/07 09:40:19;;;;;;;;;4.67;3.67;;;;;-146.25;100.00;57879.81;5096540;27;45434;-74
2023/12/07 09:42:46;;;;;;;;;4.00;3.25;;;;;-146.25;100.00;57879.81;5096001;27;45366;-73
2023/12/07 09:45:12;;;;;;;;;3.00;2.00;;;;;-146.25;100.00;57879.81;5079924;27;45343;-74
2023/12/07 09:47:40;;;;;;;;;2.50;2.50;;;;;-146.25;100.00;57879.81;5082154;27;45268;-74
2023/12/07 09:50:08;;;;;;;;;1.00;1.00;;;;;-146.25;100.00;57879.81;5100305;27;45353;-74
2023/12/07 09:52:34;;;;;;;;;1.00;1.00;;;;;-146.25;100.00;57879.81;5099851;27;45348;-74
2023/12/07 09:55:02;;;;;;;;;4.25;3.00;;;;;-146.25;100.00;57879.81;5081690;27;45605;-74
2023/12/07 09:57:28;;;;;;;;;4.00;4.00;;;;;-146.25;100.00;57879.81;5099895;27;45370;-73
2023/12/07 09:59:55;;;;;;;;;1.00;1.00;;;;;-146.25;100.00;57879.81;5100296;27;45566;-73
2023/12/07 10:02:21;;;;;;;;;6.00;6.00;;;;;-146.25;100.00;57879.81;5100270;27;45426;-74
2023/12/07 10:04:47;;;;;;;;;4.00;4.00;;;;;-146.25;100.00;57879.81;5100287;27;45457;-74
2023/12/07 10:07:13;;;;;;;;;2.00;2.00;;;;;-146.25;100.00;57879.81;5100110;27;46216;-75
2023/12/07 10:09:43;;;;;;;;;1.33;1.33;;;;;-146.25;100.00;57879.81;5100602;27;45341;-74
2023/12/07 10:12:08;;;;;;;;;3.00;3.00;;;;;-146.25;100.00;57879.81;5082957;27;45515;-75
2023/12/07 10:14:34;;;;;;;;;1.00;1.00;;;;;-146.25;100.00;57879.81;5099932;27;45463;-73
2023/12/07 10:17:00;;;;;;;;;1.00;1.00;;;;;-146.25;100.00;57879.81;5099371;27;45890;-74
2023/12/07 10:19:27;;;;;;;;;1.00;0.00;;;;;-146.25;100.00;57879.81;5099660;27;45576;-74
2023/12/07 10:21:53;;;;;;;;;2.00;1.00;;;;;-146.25;100.00;57879.81;5099491;27;45516;-74
2023/12/07 10:24:24;;;;;;;;;2.00;1.67;;;;;-146.25;100.00;57879.81;5100796;27;45653;-74
2023/12/07 10:26:51;;;;;;;;;1.00;1.00;;;;;-146.25;100.00;57879.81;5100157;27;46620;-74
2023/12/07 10:29:23;;;;;;;;;0.00;0.00;;;;;-146.25;100.00;57879.81;5099738;27;45475;-74
2023/12/07 10:31:48;;;;;;;;;0.00;0.00;;;;;-146.25;100.00;57879.81;5099325;27;45435;-73
2023/12/07 10:34:19;;;;;;;;;0.67;0.67;;;;;-146.25;100.00;57879.81;5099631;27;45683;-74
2023/12/07 10:36:47;;;;;;;;;1.00;1.00;;;;;-146.25;100.00;57879.81;5099019;27;46384;-74
2023/12/07 10:39:13;;;;;;;;;1.00;1.00;;;;;-146.25;100.00;57879.81;5099770;27;45300;-75
2023/12/07 10:41:42;;;;;;;;;0.67;0.67;;;;;-146.25;100.00;57879.81;5099813;27;45503;-73
2023/12/07 10:44:11;;;;;;;;;1.00;0.00;;;;;-146.25;100.00;57879.81;5100076;27;45315;-74
2023/12/07 10:46:39;;;;;;;;;0.00;0.00;;;;;-146.25;100.00;57879.81;5099206;27;45350;-74
2023/12/07 10:49:10;;;;;;;;;0.00;0.00;;;;;-146.25;100.00;57879.81;5099257;27;45502;-74
2023/12/07 10:51:50;;;;;;;;;0.67;0.67;;;;;-146.25;100.00;57879.81;5099354;27;45524;-73
2023/12/07 10:54:21;;;;;;;;;0.00;0.00;;;;;-146.25;100.00;57879.81;5099477;27;45355;-74
2023/12/07 10:56:50;;;;;;;;;0.00;0.00;;;;;-146.25;100.00;57879.81;5098557;27;45631;-74
2023/12/07 10:59:16;;;;;;;;;0.00;0.00;;;;;-146.25;100.00;57879.81;5098712;27;45553;-74
2023/12/07 11:01:43;;;;;;;;;0.00;0.00;;;;;-146.25;100.00;57879.81;5099550;27;45307;-74
2023/12/07 11:04:13;;;;;;;;;1.00;1.00;;;;;-146.25;100.00;57879.81;5099001;27;45311;-74
2023/12/07 11:06:41;;;;;;;;;0.00;0.00;;;;;-146.25;100.00;57879.81;5098533;27;46060;-74
2023/12/07 11:09:17;;;;;;;;;0.00;0.00;;;;;-146.25;100.00;57879.81;5079763;27;45499;-73